createdAt,value
2018-09-13T00:00:03.125Z,19.70
2018-09-13T00:02:31.346Z,19.60
2018-09-13T00:04:59.531Z,19.70
2018-09-13T00:07:27.725Z,19.70
2018-09-13T00:09:56.033Z,19.70
2018-09-13T00:12:24.412Z,19.70
2018-09-13T00:14:52.777Z,19.70
2018-09-13T00:17:21.410Z,19.70
2018-09-13T00:19:49.802Z,19.70
2018-09-13T00:22:18.205Z,19.60
2018-09-13T00:24:46.438Z,19.60
2018-09-13T00:27:14.924Z,19.60
2018-09-13T00:29:43.113Z,19.60
2018-09-13T00:32:11.323Z,19.60
2018-09-13T00:34:39.534Z,19.60
2018-09-13T00:37:07.825Z,19.60
2018-09-13T00:39:35.999Z,19.60
2018-09-13T00:42:04.229Z,19.60
2018-09-13T00:44:32.669Z,19.50
2018-09-13T00:47:00.931Z,19.50
2018-09-13T00:49:29.138Z,19.50
2018-09-13T00:51:57.486Z,19.40
2018-09-13T00:54:25.667Z,19.40
2018-09-13T00:56:53.881Z,19.40
2018-09-13T00:59:22.078Z,19.40
2018-09-13T01:01:50.286Z,19.40
2018-09-13T01:04:18.553Z,19.50
2018-09-13T01:06:47.018Z,19.50
2018-09-13T01:09:15.242Z,19.60
2018-09-13T01:11:43.421Z,19.60
2018-09-13T01:14:11.635Z,19.60
2018-09-13T01:16:39.865Z,19.60
2018-09-13T01:19:08.163Z,19.60
2018-09-13T01:21:36.389Z,19.50
2018-09-13T01:24:04.595Z,19.50
2018-09-13T01:26:32.797Z,19.50
2018-09-13T01:29:01.141Z,19.40
2018-09-13T01:31:29.367Z,19.40
2018-09-13T01:33:57.563Z,19.30
2018-09-13T01:36:25.761Z,19.30
2018-09-13T01:38:54.161Z,19.30
2018-09-13T01:41:22.351Z,19.30
2018-09-13T01:43:50.524Z,19.40
2018-09-13T01:46:18.745Z,19.40
2018-09-13T01:48:46.943Z,19.40
2018-09-13T01:51:15.222Z,19.40
2018-09-13T01:53:43.521Z,19.40
2018-09-13T01:56:11.696Z,19.40
2018-09-13T01:58:39.890Z,19.40
2018-09-13T02:01:08.082Z,19.40
2018-09-13T02:03:36.273Z,19.40
2018-09-13T02:06:04.718Z,19.40
2018-09-13T02:08:32.909Z,19.40
2018-09-13T02:11:01.308Z,19.40
2018-09-13T02:13:29.691Z,19.40
2018-09-13T02:15:57.869Z,19.40
2018-09-13T02:18:26.061Z,19.40
2018-09-13T02:20:54.260Z,19.40
2018-09-13T02:23:22.481Z,19.40
2018-09-13T02:25:50.673Z,19.40
2018-09-13T02:28:18.890Z,19.40
2018-09-13T02:30:47.076Z,19.40
2018-09-13T02:33:15.265Z,19.30
2018-09-13T02:35:43.589Z,19.30
2018-09-13T02:38:11.777Z,19.30
2018-09-13T02:40:40.026Z,19.20
2018-09-13T02:43:08.213Z,19.10
2018-09-13T02:45:36.419Z,19.10
2018-09-13T02:48:04.636Z,19.10
2018-09-13T02:50:32.823Z,19.10
2018-09-13T02:53:01.170Z,19.10
2018-09-13T02:55:29.364Z,19.10
2018-09-13T02:57:58.047Z,19.10
2018-09-13T03:00:26.217Z,19.10
2018-09-13T03:02:54.564Z,19.10
2018-09-13T03:05:22.793Z,19.10
2018-09-13T03:07:50.968Z,19.20
2018-09-13T03:10:19.155Z,19.30
2018-09-13T03:12:47.341Z,19.30
2018-09-13T03:15:15.564Z,19.30
2018-09-13T03:17:43.969Z,19.30
2018-09-13T03:20:12.233Z,19.30
2018-09-13T03:22:40.425Z,19.40
2018-09-13T03:25:08.657Z,19.40
2018-09-13T03:27:36.910Z,19.40
2018-09-13T03:30:05.161Z,19.40
2018-09-13T03:32:33.407Z,19.40
2018-09-13T03:35:01.613Z,19.40
2018-09-13T03:37:29.956Z,19.50
2018-09-13T03:39:58.161Z,19.60
2018-09-13T03:42:26.418Z,19.60
2018-09-13T03:44:55.399Z,19.70
2018-09-13T03:47:23.583Z,19.70
2018-09-13T03:49:51.849Z,19.70
2018-09-13T03:52:20.053Z,19.70
2018-09-13T03:54:48.261Z,19.70
2018-09-13T03:57:16.477Z,19.70
2018-09-13T03:59:44.728Z,19.60
2018-09-13T04:02:13.080Z,19.60
2018-09-13T04:04:41.525Z,19.50
2018-09-13T04:07:09.938Z,19.40
2018-09-13T04:09:38.178Z,19.30
2018-09-13T04:12:06.407Z,19.20
2018-09-13T04:14:34.628Z,19.20
2018-09-13T04:17:02.833Z,19.10
2018-09-13T04:19:46.354Z,19.10
2018-09-13T04:22:15.465Z,19.10
2018-09-13T04:24:44.365Z,19.00
2018-09-13T04:27:12.729Z,19.00
2018-09-13T04:29:41.239Z,19.00
2018-09-13T04:32:09.470Z,18.90
2018-09-13T04:34:37.757Z,18.80
2018-09-13T04:37:06.107Z,18.80
2018-09-13T04:39:34.302Z,18.90
2018-09-13T04:42:02.476Z,18.90
2018-09-13T04:44:30.797Z,18.90
2018-09-13T04:46:59.048Z,18.90
2018-09-13T04:49:27.280Z,18.90
2018-09-13T04:51:55.489Z,18.90
2018-09-13T04:54:23.710Z,18.80
2018-09-13T04:56:52.073Z,18.80
2018-09-13T04:59:20.283Z,18.80
2018-09-13T05:01:48.469Z,18.80
2018-09-13T05:04:16.673Z,18.80
2018-09-13T05:06:45.019Z,18.80
2018-09-13T05:09:14.145Z,18.80
2018-09-13T05:11:42.386Z,18.80
2018-09-13T05:14:10.605Z,18.80
2018-09-13T05:16:38.807Z,18.90
2018-09-13T05:19:07.185Z,18.90
2018-09-13T05:21:35.376Z,19.00
2018-09-13T05:24:03.925Z,19.00
2018-09-13T05:26:32.140Z,19.00
2018-09-13T05:29:00.420Z,19.00
2018-09-13T05:31:29.066Z,19.10
2018-09-13T05:33:58.299Z,19.20
2018-09-13T05:36:26.503Z,19.20
2018-09-13T05:38:54.786Z,19.20
2018-09-13T05:41:22.880Z,19.30
2018-09-13T05:43:51.111Z,19.40
2018-09-13T05:46:19.479Z,19.60
2018-09-13T05:48:47.687Z,19.60
2018-09-13T05:51:15.965Z,19.70
2018-09-13T05:53:44.366Z,19.70
2018-09-13T05:56:12.609Z,19.70
2018-09-13T05:58:40.827Z,19.80
2018-09-13T06:01:09.240Z,19.90
2018-09-13T06:03:37.416Z,19.90
2018-09-13T06:06:05.701Z,19.90
2018-09-13T06:08:33.905Z,20.00
2018-09-13T06:11:02.113Z,20.10
2018-09-13T06:13:30.382Z,20.20
2018-09-13T06:15:58.811Z,20.30
2018-09-13T06:18:27.001Z,20.40
2018-09-13T06:20:55.247Z,20.40
2018-09-13T06:23:23.530Z,20.50
2018-09-13T06:25:51.883Z,20.50
2018-09-13T06:28:20.081Z,20.70
2018-09-13T06:30:48.308Z,20.80
2018-09-13T06:33:16.689Z,21.00
2018-09-13T06:35:44.909Z,21.00
2018-09-13T06:38:13.448Z,21.10
2018-09-13T06:40:41.636Z,21.30
2018-09-13T06:43:09.869Z,21.50
2018-09-13T06:45:38.071Z,21.60
2018-09-13T06:48:06.497Z,22.00
2018-09-13T06:50:34.960Z,22.20
2018-09-13T06:53:03.255Z,22.40
2018-09-13T06:55:31.482Z,22.60
2018-09-13T06:57:59.681Z,22.70
2018-09-13T07:00:28.117Z,22.80
2018-09-13T07:02:56.313Z,23.00
2018-09-13T07:05:25.025Z,23.10
2018-09-13T07:07:53.250Z,23.20
2018-09-13T07:10:21.494Z,23.30
2018-09-13T07:12:49.882Z,23.40
2018-09-13T07:15:18.296Z,23.40
2018-09-13T07:17:46.542Z,23.50
2018-09-13T07:20:15.057Z,23.50
2018-09-13T07:22:43.614Z,23.40
2018-09-13T07:25:11.958Z,23.20
2018-09-13T07:27:40.316Z,23.10
2018-09-13T07:30:08.682Z,23.10
2018-09-13T07:32:37.019Z,23.20
2018-09-13T07:35:05.288Z,23.30
2018-09-13T07:37:33.779Z,23.40
2018-09-13T07:40:02.081Z,23.40
2018-09-13T07:42:30.453Z,23.40
2018-09-13T07:44:58.759Z,23.40
2018-09-13T07:47:27.075Z,23.60
2018-09-13T07:49:55.608Z,23.70
2018-09-13T07:52:23.715Z,23.90
2018-09-13T07:54:52.015Z,24.00
2018-09-13T07:57:21.238Z,24.20
2018-09-13T07:59:50.289Z,24.30
2018-09-13T08:02:18.617Z,24.50
2018-09-13T08:04:51.874Z,24.60
2018-09-13T08:07:20.284Z,24.70
2018-09-13T08:09:48.821Z,24.70
2018-09-13T08:12:17.249Z,24.50
2018-09-13T08:14:45.839Z,24.50
2018-09-13T08:17:14.162Z,24.50
2018-09-13T08:19:42.461Z,24.50
2018-09-13T08:22:11.050Z,24.70
2018-09-13T08:24:39.465Z,24.70
2018-09-13T08:27:08.089Z,24.70
2018-09-13T08:29:36.443Z,24.70
2018-09-13T08:32:04.983Z,24.70
2018-09-13T08:34:33.345Z,24.80
2018-09-13T08:37:01.612Z,24.80
2018-09-13T08:39:29.877Z,24.90
2018-09-13T08:41:58.163Z,25.00
2018-09-13T08:44:26.556Z,25.10
2018-09-13T08:46:54.831Z,25.20
2018-09-13T08:49:23.267Z,25.20
2018-09-13T08:51:51.939Z,25.40
2018-09-13T08:54:20.207Z,25.50
2018-09-13T08:56:48.413Z,25.70
2018-09-13T08:59:16.683Z,25.80
2018-09-13T09:01:44.942Z,25.90
2018-09-13T09:04:13.302Z,26.00
2018-09-13T09:06:41.545Z,26.10
2018-09-13T09:09:11.533Z,26.30
2018-09-13T09:11:40.053Z,26.30
2018-09-13T09:14:08.362Z,26.40
2018-09-13T09:16:36.695Z,26.50
2018-09-13T09:19:04.977Z,26.70
2018-09-13T09:21:33.265Z,26.90
2018-09-13T09:24:01.817Z,27.20
2018-09-13T09:26:30.182Z,27.20
2018-09-13T09:28:58.586Z,27.20
2018-09-13T09:31:27.782Z,27.30
2018-09-13T09:33:56.380Z,27.50
2018-09-13T09:36:24.717Z,27.70
2018-09-13T09:38:53.073Z,27.90
2018-09-13T09:41:21.671Z,28.10
2018-09-13T09:43:49.961Z,28.20
2018-09-13T09:46:18.185Z,28.40
2018-09-13T09:48:46.427Z,28.30
2018-09-13T09:51:14.693Z,28.10
2018-09-13T09:53:42.969Z,28.10
2018-09-13T09:56:11.386Z,28.00
2018-09-13T09:58:39.597Z,28.10
2018-09-13T10:01:13.252Z,28.00
2018-09-13T10:03:41.530Z,28.10
2018-09-13T10:06:10.186Z,28.30
2018-09-13T10:08:38.445Z,28.30
2018-09-13T10:11:06.765Z,28.30
2018-09-13T10:13:35.112Z,28.40
2018-09-13T10:16:08.901Z,28.50
2018-09-13T10:18:43.669Z,28.60
2018-09-13T10:21:17.295Z,28.60
2018-09-13T10:23:50.940Z,28.80
2018-09-13T10:26:24.580Z,28.90
2018-09-13T10:28:58.325Z,29.10
2018-09-13T10:31:31.924Z,29.20
2018-09-13T10:34:05.532Z,29.20
2018-09-13T10:36:39.251Z,29.10
2018-09-13T10:39:13.942Z,29.00
2018-09-13T10:41:47.754Z,29.00
2018-09-13T10:44:21.422Z,29.00
2018-09-13T10:46:54.941Z,29.00
2018-09-13T10:49:28.669Z,29.00
2018-09-13T10:52:03.161Z,29.00
2018-09-13T10:54:39.478Z,29.10
2018-09-13T10:57:13.354Z,29.00
2018-09-13T10:59:41.789Z,28.80
2018-09-13T11:02:10.904Z,28.60
2018-09-13T11:04:39.705Z,28.40
2018-09-13T11:07:09.438Z,28.30
2018-09-13T11:09:37.811Z,28.40
2018-09-13T11:12:07.076Z,28.40
2018-09-13T11:14:42.646Z,28.60
2018-09-13T11:17:11.014Z,28.70
2018-09-13T11:19:39.380Z,28.70
2018-09-13T11:22:07.760Z,28.80
2018-09-13T11:24:36.116Z,28.80
2018-09-13T11:27:04.425Z,28.80
2018-09-13T11:29:32.770Z,28.80
2018-09-13T11:32:01.105Z,28.80
2018-09-13T11:34:29.370Z,28.90
2018-09-13T11:36:57.740Z,29.00
2018-09-13T11:39:26.308Z,29.10
2018-09-13T11:41:54.612Z,29.10
2018-09-13T11:44:22.894Z,29.20
2018-09-13T11:46:51.251Z,29.10
2018-09-13T11:49:19.542Z,29.00
2018-09-13T11:51:48.207Z,28.80
2018-09-13T11:54:16.478Z,28.80
2018-09-13T11:56:44.800Z,28.80
2018-09-13T11:59:13.183Z,28.80
2018-09-13T12:01:41.513Z,28.70
2018-09-13T12:04:09.697Z,28.90
2018-09-13T12:06:37.928Z,29.10
2018-09-13T12:09:09.466Z,29.10
2018-09-13T12:11:37.687Z,29.20
2018-09-13T12:14:06.831Z,29.50
2018-09-13T12:16:35.781Z,30.80
2018-09-13T12:19:04.414Z,33.00
2018-09-13T12:21:32.676Z,35.60
2018-09-13T12:24:01.132Z,38.00
2018-09-13T12:26:29.350Z,39.20
2018-09-13T12:28:57.730Z,39.50
2018-09-13T12:31:26.089Z,39.00
2018-09-13T12:33:54.326Z,38.20
2018-09-13T12:36:22.546Z,37.50
2018-09-13T12:38:50.797Z,37.20
2018-09-13T12:41:18.997Z,36.90
2018-09-13T12:43:47.196Z,36.80
2018-09-13T12:46:15.629Z,36.60
2018-09-13T12:48:43.837Z,36.50
2018-09-13T12:51:12.333Z,36.30
2018-09-13T12:53:40.506Z,36.30
2018-09-13T12:56:09.377Z,36.00
2018-09-13T12:58:37.605Z,35.50
2018-09-13T13:01:06.946Z,35.10
2018-09-13T13:03:35.189Z,34.80
2018-09-13T13:06:03.401Z,34.70
2018-09-13T13:08:31.653Z,34.80
2018-09-13T13:11:00.007Z,35.20
2018-09-13T13:13:28.237Z,35.90
2018-09-13T13:15:56.472Z,36.90
2018-09-13T13:18:24.698Z,38.70
2018-09-13T13:20:52.922Z,39.90
2018-09-13T13:23:21.107Z,40.40
2018-09-13T13:25:49.537Z,40.70
2018-09-13T13:28:17.741Z,41.50
2018-09-13T13:30:46.118Z,41.60
2018-09-13T13:33:14.329Z,41.70
2018-09-13T13:35:42.754Z,41.30
2018-09-13T13:38:11.114Z,40.70
2018-09-13T13:40:39.333Z,40.00
2018-09-13T13:43:07.529Z,39.40
2018-09-13T13:45:36.418Z,39.20
2018-09-13T13:48:06.110Z,38.80
2018-09-13T13:50:34.682Z,38.80
2018-09-13T13:53:03.059Z,38.40
2018-09-13T13:55:31.726Z,38.00
2018-09-13T13:58:00.431Z,38.80
2018-09-13T14:00:28.921Z,39.80
2018-09-13T14:02:57.198Z,40.30
2018-09-13T14:05:25.571Z,40.50
2018-09-13T14:07:53.932Z,40.20
2018-09-13T14:10:22.159Z,39.80
2018-09-13T14:12:50.391Z,39.90
2018-09-13T14:15:18.775Z,40.90
2018-09-13T14:17:47.333Z,41.80
2018-09-13T14:20:15.605Z,43.20
2018-09-13T14:22:43.767Z,44.00
2018-09-13T14:25:12.360Z,44.50
2018-09-13T14:27:40.821Z,44.00
2018-09-13T14:30:09.073Z,42.80
2018-09-13T14:32:37.265Z,41.30
2018-09-13T14:35:05.621Z,40.10
2018-09-13T14:37:33.813Z,38.90
2018-09-13T14:40:02.075Z,38.10
2018-09-13T14:42:30.245Z,37.50
2018-09-13T14:44:58.566Z,37.10
2018-09-13T14:47:26.801Z,37.00
2018-09-13T14:49:55.198Z,36.50
2018-09-13T14:52:23.421Z,35.90
2018-09-13T14:54:51.592Z,35.40
2018-09-13T14:57:20.237Z,34.90
2018-09-13T14:59:48.387Z,34.40
2018-09-13T15:02:16.589Z,33.90
2018-09-13T15:04:44.833Z,33.70
2018-09-13T15:07:13.061Z,33.90
2018-09-13T15:09:41.213Z,34.00
2018-09-13T15:12:09.427Z,33.60
2018-09-13T15:14:37.716Z,33.20
2018-09-13T15:17:06.118Z,32.60
2018-09-13T15:19:34.833Z,32.00
2018-09-13T15:22:03.133Z,31.50
2018-09-13T15:24:31.602Z,31.10
2018-09-13T15:26:59.729Z,30.70
2018-09-13T15:29:28.145Z,30.50
2018-09-13T15:31:56.379Z,30.10
2018-09-13T15:34:24.677Z,29.80
2018-09-13T15:36:53.043Z,29.50
2018-09-13T15:39:21.500Z,29.20
2018-09-13T15:41:49.905Z,29.00
2018-09-13T15:44:18.256Z,28.50
2018-09-13T15:46:46.640Z,28.10
2018-09-13T15:49:14.896Z,27.90
2018-09-13T15:51:43.133Z,27.70
2018-09-13T15:54:11.337Z,27.60
2018-09-13T15:56:39.561Z,27.30
2018-09-13T15:59:07.916Z,27.20
2018-09-13T16:01:36.321Z,27.00
2018-09-13T16:04:04.704Z,26.90
2018-09-13T16:06:33.533Z,26.70
2018-09-13T16:09:02.290Z,26.50
2018-09-13T16:11:30.476Z,26.30
2018-09-13T16:13:58.677Z,26.20
2018-09-13T16:16:27.109Z,26.10
2018-09-13T16:18:55.949Z,26.00
2018-09-13T16:21:24.165Z,26.00
2018-09-13T16:23:52.377Z,25.90
2018-09-13T16:26:20.726Z,25.80
2018-09-13T16:28:48.974Z,25.90
2018-09-13T16:31:17.222Z,25.80
2018-09-13T16:33:45.402Z,25.60
2018-09-13T16:36:30.501Z,25.50
2018-09-13T16:39:04.401Z,25.30
2018-09-13T16:41:41.941Z,25.10
2018-09-13T16:44:14.416Z,25.00
2018-09-13T16:46:48.072Z,24.90
2018-09-13T16:49:16.348Z,24.70
2018-09-13T16:51:44.594Z,24.60
2018-09-13T16:54:12.827Z,24.50
2018-09-13T16:56:41.178Z,24.50
2018-09-13T16:59:09.471Z,24.40
2018-09-13T17:01:37.672Z,24.30
2018-09-13T17:04:06.131Z,24.20
2018-09-13T17:06:34.694Z,24.20
2018-09-13T17:09:03.594Z,24.10
2018-09-13T17:11:31.859Z,24.00
2018-09-13T17:14:00.122Z,23.90
2018-09-13T17:16:28.358Z,23.80
2018-09-13T17:18:56.621Z,23.70
2018-09-13T17:21:24.839Z,23.60
2018-09-13T17:23:53.110Z,23.60
2018-09-13T17:26:21.653Z,23.40
2018-09-13T17:28:53.349Z,23.30
2018-09-13T17:31:21.658Z,23.20
2018-09-13T17:33:49.922Z,23.10
2018-09-13T17:36:18.217Z,23.00
2018-09-13T17:38:46.543Z,22.90
2018-09-13T17:41:14.745Z,22.90
2018-09-13T17:43:43.324Z,22.80
2018-09-13T17:46:12.589Z,22.80
2018-09-13T17:48:43.057Z,22.70
2018-09-13T17:51:14.134Z,22.70
2018-09-13T17:53:43.282Z,22.60
2018-09-13T17:56:11.530Z,22.50
2018-09-13T17:58:39.774Z,22.50
2018-09-13T18:01:09.987Z,22.50
2018-09-13T18:03:40.034Z,22.50
2018-09-13T18:06:10.152Z,22.40
2018-09-13T18:08:38.853Z,22.30
2018-09-13T18:11:07.149Z,22.30
2018-09-13T18:13:35.522Z,22.30
2018-09-13T18:16:04.790Z,22.30
2018-09-13T18:18:33.115Z,22.20
2018-09-13T18:21:01.369Z,22.20
2018-09-13T18:23:29.696Z,22.10
2018-09-13T18:25:58.070Z,22.10
2018-09-13T18:28:26.402Z,22.00
2018-09-13T18:30:54.727Z,21.90
2018-09-13T18:33:23.769Z,21.90
2018-09-13T18:35:52.508Z,21.90
2018-09-13T18:38:21.198Z,21.90
2018-09-13T18:40:49.624Z,21.90
2018-09-13T18:43:18.062Z,21.90
2018-09-13T18:45:46.469Z,21.90
2018-09-13T18:48:14.930Z,21.80
2018-09-13T18:50:43.372Z,21.80
2018-09-13T18:53:11.845Z,21.70
2018-09-13T18:55:40.308Z,21.70
2018-09-13T18:58:08.717Z,21.60
2018-09-13T19:00:37.136Z,21.60
2018-09-13T19:03:05.625Z,21.40
2018-09-13T19:05:34.106Z,21.30
2018-09-13T19:08:02.545Z,21.20
2018-09-13T19:10:31.139Z,21.10
2018-09-13T19:12:59.589Z,21.00
2018-09-13T19:15:28.077Z,21.00
2018-09-13T19:17:56.560Z,20.90
2018-09-13T19:20:24.989Z,20.80
2018-09-13T19:22:53.556Z,20.80
2018-09-13T19:25:22.026Z,20.80
2018-09-13T19:27:50.576Z,20.80
2018-09-13T19:30:18.966Z,20.60
2018-09-13T19:32:47.449Z,20.50
2018-09-13T19:35:16.156Z,20.50
2018-09-13T19:37:44.549Z,20.40
2018-09-13T19:40:13.097Z,20.40
2018-09-13T19:42:41.678Z,20.40
2018-09-13T19:45:10.149Z,20.40
2018-09-13T19:47:38.602Z,20.30
2018-09-13T19:50:07.102Z,20.30
2018-09-13T19:52:35.503Z,20.30
2018-09-13T19:55:03.725Z,20.30
2018-09-13T19:57:31.984Z,20.30
2018-09-13T20:00:00.409Z,20.30
2018-09-13T20:02:28.761Z,20.30
2018-09-13T20:04:57.082Z,20.20
2018-09-13T20:07:25.301Z,20.20
2018-09-13T20:09:53.589Z,20.20
2018-09-13T20:12:21.796Z,20.10
2018-09-13T20:14:50.014Z,20.10
2018-09-13T20:17:18.449Z,20.10
2018-09-13T20:19:46.665Z,20.00
2018-09-13T20:22:14.861Z,19.90
2018-09-13T20:24:44.008Z,19.90
2018-09-13T20:27:12.684Z,19.90
2018-09-13T20:29:40.897Z,19.90
2018-09-13T20:32:09.089Z,19.80
2018-09-13T20:34:37.320Z,19.80
2018-09-13T20:37:05.573Z,19.80
2018-09-13T20:39:34.735Z,19.80
2018-09-13T20:42:02.930Z,19.80
2018-09-13T20:44:31.127Z,19.90
2018-09-13T20:46:59.343Z,19.90
2018-09-13T20:49:27.862Z,19.90
2018-09-13T20:51:56.203Z,19.90
2018-09-13T20:54:24.378Z,19.90
2018-09-13T20:56:52.581Z,19.90
2018-09-13T20:59:20.788Z,19.90
2018-09-13T21:01:49.025Z,19.90
2018-09-13T21:04:17.245Z,19.80
2018-09-13T21:06:45.452Z,19.80
2018-09-13T21:09:13.649Z,19.70
2018-09-13T21:11:42.049Z,19.70
2018-09-13T21:14:10.299Z,19.70
2018-09-13T21:16:38.492Z,19.70
2018-09-13T21:19:06.727Z,19.70
2018-09-13T21:21:34.922Z,19.70
2018-09-13T21:24:03.255Z,19.80
2018-09-13T21:26:31.386Z,19.80
2018-09-13T21:28:59.617Z,19.80
2018-09-13T21:31:28.113Z,19.80
2018-09-13T21:33:56.573Z,19.90
2018-09-13T21:36:24.873Z,19.80
2018-09-13T21:38:53.072Z,19.80
2018-09-13T21:41:21.485Z,19.80
2018-09-13T21:43:49.684Z,19.80
2018-09-13T21:46:17.908Z,19.90
2018-09-13T21:48:46.153Z,19.90
2018-09-13T21:51:14.348Z,19.90
2018-09-13T21:53:42.547Z,20.00
2018-09-13T21:56:11.050Z,20.00
2018-09-13T21:58:39.289Z,20.10
2018-09-13T22:01:07.534Z,20.10
2018-09-13T22:03:35.773Z,20.10
2018-09-13T22:06:04.221Z,20.10
2018-09-13T22:08:32.410Z,20.10
2018-09-13T22:11:00.638Z,20.10
2018-09-13T22:13:31.111Z,20.10
2018-09-13T22:15:59.694Z,20.00
2018-09-13T22:18:27.899Z,20.10
2018-09-13T22:20:56.303Z,20.10
2018-09-13T22:23:24.629Z,20.20
2018-09-13T22:25:52.816Z,20.20
2018-09-13T22:28:21.039Z,20.30
2018-09-13T22:30:50.388Z,20.20
2018-09-13T22:33:18.613Z,20.10
2018-09-13T22:35:46.887Z,20.10
2018-09-13T22:38:15.108Z,20.00
2018-09-13T22:40:43.590Z,19.90
2018-09-13T22:43:11.807Z,19.90
2018-09-13T22:45:40.265Z,19.90
2018-09-13T22:48:08.485Z,19.80
2018-09-13T22:50:36.701Z,19.80
2018-09-13T22:53:05.073Z,19.70
2018-09-13T22:55:33.607Z,19.70
2018-09-13T22:58:01.797Z,19.70
2018-09-13T23:00:30.090Z,19.70
2018-09-13T23:02:58.332Z,19.80
2018-09-13T23:05:26.547Z,19.80
2018-09-13T23:07:54.729Z,19.80
2018-09-13T23:10:22.954Z,19.80
2018-09-13T23:12:51.194Z,19.80
2018-09-13T23:15:19.410Z,19.80
2018-09-13T23:17:47.610Z,19.80
2018-09-13T23:20:15.796Z,19.80
2018-09-13T23:22:44.249Z,19.80
2018-09-13T23:25:12.457Z,19.90
2018-09-13T23:27:40.633Z,19.90
2018-09-13T23:30:08.849Z,19.90
2018-09-13T23:32:37.041Z,19.80
2018-09-13T23:35:05.273Z,19.80
2018-09-13T23:37:33.509Z,19.60
2018-09-13T23:40:01.883Z,19.60
2018-09-13T23:42:29.950Z,19.70
2018-09-13T23:44:58.447Z,19.70
2018-09-13T23:47:26.644Z,19.80
2018-09-13T23:49:55.050Z,19.80
2018-09-13T23:52:23.237Z,19.80
2018-09-13T23:54:51.436Z,19.90
2018-09-13T23:57:19.636Z,20.00
2018-09-13T23:59:47.833Z,20.00
